Create Tblcommutelog Verified Points Advance Search
| # | Trip ID | Id Commuter | Trip Date | Trip Num | Current Lat | Current Lng | Delta Distance | Current Time | Activity | Activity Confidence | Current Speed | |
|---|---|---|---|---|---|---|---|---|---|---|---|---|
| 70341 | 260205_787177_16514973_0734 | 787177 | (not set) | (not set) | 39.280929176266 | -76.552086954085 | 3.054 | 2026-02-05 07:54:25 | unknown | 100 | 4.9666061673536 | |
| 70342 | 260205_786124_6441454_0750 | 786124 | (not set) | (not set) | 39.287145401032 | -77.329504691056 | 2.5858 | 2026-02-05 07:54:25 | in_vehicle | 100 | 13.661519754665 | |
| 70343 | 260205_785147_16514010_0718 | 785147 | (not set) | (not set) | 38.967152248065 | -77.74183168843 | 27.4657 | 2026-02-05 07:54:25 | in_vehicle | 100 | 4.0948796123276 | |
| 70344 | 260205_781333_16450333_0752 | 781333 | (not set) | (not set) | 38.938037473902 | -77.032759362012 | 0.2415 | 2026-02-05 07:54:26 | on_foot | 100 | -0.44703925898772 | |
| 70345 | 260205_696035_16485730_0651 | 696035 | (not set) | (not set) | 38.888052266354 | -77.003559846436 | 28.8984 | 2026-02-05 07:54:26 | in_vehicle | 100 | 3.057748531476 | |
| 70346 | 260205_789668_16432192_0720 | 789668 | (not set) | (not set) | 38.671328525167 | -76.876015721155 | 26.7902 | 2026-02-05 07:54:28 | unknown | 100 | 6.8575822328717 | |
| 70347 | 260205_789307_16516032_0724 | 789307 | (not set) | (not set) | 39.015393642021 | -76.927496769301 | 13.7414 | 2026-02-05 07:54:28 | in_vehicle | 100 | 3.7730113458564 | |
| 70348 | 260205_787735_16413954_0736 | 787735 | (not set) | (not set) | 39.141280982404 | -77.19104056154 | 4.9695 | 2026-02-05 07:54:29 | in_vehicle | 100 | 4.0144125457098 | |
| 70349 | 260205_789715_16492506_0739 | 789715 | (not set) | (not set) | 38.87988839219 | -77.240437430746 | 12.1141 | 2026-02-05 07:54:29 | in_vehicle | 100 | 15.145690094504 | |
| 70350 | 260205_787830_16413954_0745 | 787830 | (not set) | (not set) | 39.14141136481 | -77.190786124782 | 2.0578 | 2026-02-05 07:54:29 | in_vehicle | 100 | 4.3809847380797 | |
| 70351 | 260205_781117_16450333_0730 | 781117 | (not set) | (not set) | 38.936959118381 | -77.024203589855 | 0.201 | 2026-02-05 07:54:28 | in_vehicle | 100 | -0.44703925898772 | |
| 70352 | 260205_781117_16450333_0730 | 781117 | (not set) | (not set) | 38.924971076329 | -77.01813052763 | 0.201 | 2026-02-05 07:54:28 | in_vehicle | 100 | -0.44703925898772 | |
| 70353 | 260205_731669_16507744_0730 | 731669 | (not set) | (not set) | 38.796121829282 | -77.585919356658 | 10.2363 | 2026-02-05 07:54:30 | in_vehicle | 100 | 8.9720779278836 | |
| 70354 | 260205_789453_16505281_0736 | 789453 | (not set) | (not set) | 39.012655463635 | -76.904879967477 | 11.5829 | 2026-02-05 07:54:30 | in_vehicle | 100 | 7.501318765814 | |
| 70355 | 260205_766890_6441454_0737 | 766890 | (not set) | (not set) | 38.99954804915 | -77.098410478775 | 3.9351 | 2026-02-05 07:54:30 | on_bicycle | 100 | -0.44703925898772 | |
| 70356 | 260205_766890_6441454_0737 | 766890 | (not set) | (not set) | 38.99954804915 | -77.098410478775 | 3.9351 | 2026-02-05 07:54:30 | on_bicycle | 100 | -0.44703925898772 | |
| 70357 | 260205_788974_16505281_0736 | 788974 | (not set) | (not set) | 39.012769909956 | -76.905016444222 | 11.4954 | 2026-02-05 07:54:31 | in_vehicle | 100 | 7.7293087878978 | |
| 70358 | 260205_789454_16505281_0738 | 789454 | (not set) | (not set) | 39.012763662183 | -76.905044081292 | 11.2621 | 2026-02-05 07:54:31 | in_vehicle | 100 | 7.64884172128 | |
| 70359 | 260205_788974_16505281_0736 | 788974 | (not set) | (not set) | 39.012769909956 | -76.905016444222 | 11.4954 | 2026-02-05 07:54:31 | in_vehicle | 100 | 7.7293087878978 | |
| 70360 | 260205_790091_16497809_0735 | 790091 | (not set) | (not set) | 38.978880970157 | -76.928293954438 | 13.1383 | 2026-02-05 07:54:31 | in_vehicle | 100 | 4.6849714341914 |